createdAt,value
2022-09-10T00:00:19.508Z,22.25
2022-09-10T00:02:21.228Z,22.21
2022-09-10T00:04:22.840Z,22.20
2022-09-10T00:06:27.617Z,22.19
2022-09-10T00:08:30.447Z,22.17
2022-09-10T00:10:32.108Z,22.18
2022-09-10T00:12:34.898Z,22.20
2022-09-10T00:14:37.336Z,22.18
2022-09-10T00:16:39.152Z,22.19
2022-09-10T00:18:41.791Z,22.20
2022-09-10T00:20:54.195Z,22.18
2022-09-10T00:22:55.848Z,22.17
2022-09-10T00:24:57.701Z,22.18
2022-09-10T00:27:00.083Z,22.09
2022-09-10T00:29:01.896Z,21.95
2022-09-10T00:31:04.119Z,21.95
2022-09-10T00:33:05.822Z,21.95
2022-09-10T00:35:08.160Z,21.86
2022-09-10T00:37:09.917Z,21.73
2022-09-10T00:39:14.716Z,21.70
2022-09-10T00:41:17.742Z,21.74
2022-09-10T00:43:22.009Z,21.76
2022-09-10T00:45:32.338Z,21.77
2022-09-10T00:47:38.375Z,21.75
2022-09-10T00:49:45.769Z,21.65
2022-09-10T00:51:48.710Z,21.65
2022-09-10T00:53:50.888Z,21.71
2022-09-10T00:55:55.965Z,21.77
2022-09-10T00:58:00.774Z,21.80
2022-09-10T01:00:08.133Z,21.74
2022-09-10T01:02:10.203Z,21.73
2022-09-10T01:04:11.865Z,21.61
2022-09-10T01:06:13.454Z,21.61
2022-09-10T01:08:16.852Z,21.56
2022-09-10T01:10:24.583Z,21.53
2022-09-10T01:13:07.139Z,21.51
2022-09-10T01:15:25.075Z,21.52
2022-09-10T01:17:29.870Z,21.51
2022-09-10T01:20:00.669Z,21.51
2022-09-10T01:22:19.354Z,21.52
2022-09-10T01:24:24.464Z,21.57
2022-09-10T01:26:44.408Z,21.64
2022-09-10T01:29:09.542Z,21.65
2022-09-10T01:31:46.263Z,21.49
2022-09-10T01:33:57.390Z,21.37
2022-09-10T01:36:06.934Z,21.28
2022-09-10T01:38:15.560Z,21.29
2022-09-10T01:40:18.082Z,21.35
2022-09-10T01:42:19.672Z,21.37
2022-09-10T01:44:49.634Z,21.40
2022-09-10T01:47:00.579Z,21.50
2022-09-10T01:49:26.042Z,21.59
2022-09-10T01:51:42.608Z,21.66
2022-09-10T01:54:11.463Z,21.73
2022-09-10T01:56:40.608Z,21.76
2022-09-10T01:58:43.554Z,21.81
2022-09-10T02:01:14.408Z,21.83
2022-09-10T02:03:18.979Z,21.88
2022-09-10T02:05:23.478Z,21.91
2022-09-10T02:07:26.931Z,21.90
2022-09-10T02:09:28.574Z,21.88
2022-09-10T02:11:30.538Z,21.87
2022-09-10T02:13:34.286Z,21.87
2022-09-10T02:15:37.960Z,21.82
2022-09-10T02:17:40.422Z,21.79
2022-09-10T02:19:44.544Z,21.79
2022-09-10T02:21:46.790Z,21.79
2022-09-10T02:23:56.976Z,21.78
2022-09-10T02:25:58.758Z,21.78
2022-09-10T02:28:00.777Z,21.80
2022-09-10T02:30:02.524Z,21.85
2022-09-10T02:32:04.493Z,21.83
2022-09-10T02:34:06.568Z,21.84
2022-09-10T02:36:08.699Z,21.75
2022-09-10T02:38:10.760Z,21.20
2022-09-10T02:40:12.705Z,20.72
2022-09-10T02:42:17.031Z,20.34
2022-09-10T02:44:18.715Z,20.21
2022-09-10T02:46:20.632Z,20.37
2022-09-10T02:48:22.308Z,20.49
2022-09-10T02:50:24.486Z,20.56
2022-09-10T02:52:26.098Z,20.50
2022-09-10T02:54:27.673Z,20.40
2022-09-10T02:56:29.323Z,20.23
2022-09-10T02:58:31.459Z,20.19
2022-09-10T03:00:33.813Z,20.30
2022-09-10T03:02:36.932Z,20.42
2022-09-10T03:04:39.122Z,20.56
2022-09-10T03:06:41.182Z,20.74
2022-09-10T03:08:42.883Z,20.83
2022-09-10T03:10:45.381Z,20.77
2022-09-10T03:12:48.044Z,20.81
2022-09-10T03:14:50.542Z,20.90
2022-09-10T03:16:52.749Z,20.98
2022-09-10T03:18:54.509Z,21.07
2022-09-10T03:20:56.121Z,21.15
2022-09-10T03:22:57.922Z,21.20
2022-09-10T03:24:59.864Z,21.23
2022-09-10T03:27:01.496Z,21.26
2022-09-10T03:29:03.410Z,21.32
2022-09-10T03:31:05.628Z,21.38
2022-09-10T03:33:07.893Z,21.43
2022-09-10T03:35:10.541Z,21.45
2022-09-10T03:37:12.139Z,21.49
2022-09-10T03:39:16.597Z,21.49
2022-09-10T03:41:18.281Z,21.53
2022-09-10T03:43:22.462Z,21.54
2022-09-10T03:45:24.092Z,21.57
2022-09-10T03:47:25.733Z,21.57
2022-09-10T03:49:28.186Z,21.60
2022-09-10T03:51:31.172Z,21.58
2022-09-10T03:53:32.791Z,21.56
2022-09-10T03:55:34.433Z,21.51
2022-09-10T03:57:36.033Z,21.45
2022-09-10T03:59:41.212Z,21.36
2022-09-10T04:01:43.128Z,21.20
2022-09-10T04:03:44.952Z,21.14
2022-09-10T04:05:47.077Z,21.10
2022-09-10T04:07:48.639Z,21.13
2022-09-10T04:09:50.201Z,21.18
2022-09-10T04:11:52.123Z,21.24
2022-09-10T04:13:54.713Z,21.30
2022-09-10T04:15:56.300Z,21.38
2022-09-10T04:17:57.984Z,21.42
2022-09-10T04:19:59.580Z,21.46
2022-09-10T04:22:19.586Z,21.48
2022-09-10T04:24:21.186Z,21.54
2022-09-10T04:26:23.344Z,21.56
2022-09-10T04:28:25.034Z,21.56
2022-09-10T04:30:26.707Z,21.50
2022-09-10T04:32:28.397Z,21.43
2022-09-10T04:34:29.950Z,21.27
2022-09-10T04:36:31.551Z,21.24
2022-09-10T04:38:33.740Z,21.19
2022-09-10T04:40:35.590Z,21.08
2022-09-10T04:42:37.266Z,20.75
2022-09-10T04:44:39.054Z,20.56
2022-09-10T04:46:42.035Z,20.60
2022-09-10T04:48:43.644Z,20.71
2022-09-10T04:51:05.386Z,20.84
2022-09-10T04:53:07.993Z,20.98
2022-09-10T04:55:10.575Z,21.11
2022-09-10T04:57:12.522Z,21.20
2022-09-10T04:59:14.215Z,21.32
2022-09-10T05:01:15.977Z,21.40
2022-09-10T05:03:18.329Z,21.46
2022-09-10T05:05:19.896Z,21.52
2022-09-10T05:07:21.445Z,21.55
2022-09-10T05:09:23.338Z,21.58
2022-09-10T05:11:25.424Z,21.57
2022-09-10T05:13:26.970Z,21.57
2022-09-10T05:15:28.711Z,21.56
2022-09-10T05:17:30.331Z,21.53
2022-09-10T05:19:31.965Z,21.51
2022-09-10T05:21:33.866Z,21.42
2022-09-10T05:23:35.450Z,21.28
2022-09-10T05:25:37.743Z,21.11
2022-09-10T05:27:39.611Z,20.96
2022-09-10T05:29:41.260Z,20.68
2022-09-10T05:31:43.059Z,20.45
2022-09-10T05:33:44.790Z,20.17
2022-09-10T05:35:49.152Z,20.15
2022-09-10T05:37:50.842Z,20.23
2022-09-10T05:39:52.444Z,20.40
2022-09-10T05:41:55.651Z,20.53
2022-09-10T05:43:57.733Z,20.62
2022-09-10T05:45:59.363Z,20.79
2022-09-10T05:48:01.161Z,20.95
2022-09-10T05:50:02.765Z,21.15
2022-09-10T05:52:04.399Z,21.31
2022-09-10T05:54:06.098Z,21.50
2022-09-10T05:56:07.962Z,21.68
2022-09-10T05:58:09.672Z,21.87
2022-09-10T06:00:11.816Z,22.03
2022-09-10T06:02:21.797Z,22.16
2022-09-10T06:04:25.616Z,22.21
2022-09-10T06:06:28.424Z,22.24
2022-09-10T06:08:31.440Z,22.02
2022-09-10T06:10:33.474Z,22.04
2022-09-10T06:12:36.240Z,22.00
2022-09-10T06:14:38.021Z,21.99
2022-09-10T06:16:39.688Z,21.77
2022-09-10T06:18:42.652Z,21.87
2022-09-10T06:20:44.276Z,22.02
2022-09-10T06:22:45.901Z,21.99
2022-09-10T06:24:50.280Z,22.07
2022-09-10T06:26:52.109Z,22.21
2022-09-10T06:28:55.328Z,22.14
2022-09-10T06:30:57.037Z,22.14
2022-09-10T06:32:58.679Z,22.17
2022-09-10T06:35:00.350Z,22.18
2022-09-10T06:37:03.496Z,22.21
2022-09-10T06:39:07.147Z,22.27
2022-09-10T06:41:13.565Z,22.38
2022-09-10T06:43:15.226Z,22.42
2022-09-10T06:45:16.937Z,22.48
2022-09-10T06:48:06.553Z,22.56
2022-09-10T06:49:40.848Z,22.67
2022-09-10T06:51:42.557Z,22.82
2022-09-10T06:53:47.988Z,22.92
2022-09-10T06:55:51.140Z,23.07
2022-09-10T06:57:52.932Z,23.17
2022-09-10T06:59:54.532Z,23.29
2022-09-10T07:01:56.367Z,23.44
2022-09-10T07:03:59.644Z,23.59
2022-09-10T07:06:05.963Z,23.72
2022-09-10T07:08:07.597Z,23.80
2022-09-10T07:10:09.530Z,23.82
2022-09-10T07:12:11.406Z,23.73
2022-09-10T07:14:14.025Z,23.76
2022-09-10T07:16:21.532Z,23.64
2022-09-10T07:18:24.449Z,23.74
2022-09-10T07:20:27.194Z,23.89
2022-09-10T07:22:28.757Z,23.94
2022-09-10T07:24:30.401Z,23.73
2022-09-10T07:26:32.537Z,23.74
2022-09-10T07:28:34.214Z,23.86
2022-09-10T07:30:36.113Z,24.03
2022-09-10T07:32:37.771Z,24.19
2022-09-10T07:34:39.484Z,24.26
2022-09-10T07:36:41.094Z,24.27
2022-09-10T07:38:43.260Z,24.21
2022-09-10T07:40:44.913Z,24.19
2022-09-10T07:42:46.497Z,24.23
2022-09-10T07:44:48.082Z,24.38
2022-09-10T07:46:49.762Z,24.53
2022-09-10T07:48:57.062Z,24.67
2022-09-10T07:51:06.138Z,24.83
2022-09-10T07:53:07.818Z,24.87
2022-09-10T07:55:09.866Z,24.91
2022-09-10T07:57:11.648Z,24.87
2022-09-10T07:59:13.417Z,24.92
2022-09-10T08:01:15.360Z,24.99
2022-09-10T08:03:18.333Z,25.12
2022-09-10T08:05:19.960Z,25.23
2022-09-10T08:07:21.601Z,25.28
2022-09-10T08:09:23.313Z,25.36
2022-09-10T08:11:25.353Z,25.43
2022-09-10T08:13:29.922Z,25.32
2022-09-10T08:15:31.527Z,25.30
2022-09-10T08:17:34.303Z,25.26
2022-09-10T08:19:36.904Z,25.27
2022-09-10T08:21:38.645Z,25.34
2022-09-10T08:23:40.360Z,25.53
2022-09-10T08:25:51.353Z,25.78
2022-09-10T08:28:11.749Z,25.82
2022-09-10T08:30:14.896Z,25.58
2022-09-10T08:32:16.706Z,25.61
2022-09-10T08:34:18.323Z,25.67
2022-09-10T08:36:22.022Z,25.70
2022-09-10T08:38:30.463Z,25.72
2022-09-10T08:40:32.654Z,25.71
2022-09-10T08:42:40.145Z,25.73
2022-09-10T08:44:49.915Z,25.63
2022-09-10T08:47:20.454Z,25.62
2022-09-10T08:49:36.911Z,25.58
2022-09-10T08:51:45.761Z,25.46
2022-09-10T08:53:56.044Z,25.22
2022-09-10T08:56:03.546Z,25.04
2022-09-10T08:58:13.606Z,25.11
2022-09-10T09:00:21.306Z,25.24
2022-09-10T09:02:49.021Z,25.21
2022-09-10T09:04:58.537Z,25.12
2022-09-10T09:07:02.986Z,25.10
2022-09-10T09:09:04.949Z,25.09
2022-09-10T09:11:12.648Z,25.06
2022-09-10T09:14:02.030Z,25.12
2022-09-10T09:16:28.133Z,25.23
2022-09-10T09:18:41.817Z,25.10
2022-09-10T09:20:49.173Z,24.96
2022-09-10T09:23:07.798Z,25.13
2022-09-10T09:25:27.945Z,25.30
2022-09-10T09:27:32.333Z,25.37
2022-09-10T09:29:52.742Z,25.47
2022-09-10T09:31:58.787Z,25.57
2022-09-10T09:34:13.183Z,25.67
2022-09-10T09:36:18.826Z,25.81
2022-09-10T09:38:25.649Z,25.90
2022-09-10T09:40:46.196Z,26.00
2022-09-10T09:42:58.329Z,26.08
2022-09-10T09:45:03.933Z,26.25
2022-09-10T09:47:05.530Z,26.42
2022-09-10T09:49:11.875Z,26.60
2022-09-10T09:51:16.090Z,26.74
2022-09-10T09:53:21.944Z,26.86
2022-09-10T09:55:23.691Z,26.98
2022-09-10T09:57:25.318Z,27.23
2022-09-10T09:59:31.966Z,27.33
2022-09-10T10:01:34.534Z,27.49
2022-09-10T10:03:51.649Z,27.71
2022-09-10T10:06:08.494Z,27.88
2022-09-10T10:08:26.246Z,28.01
2022-09-10T10:10:28.304Z,28.11
2022-09-10T10:12:33.855Z,28.28
2022-09-10T10:14:41.612Z,28.42
2022-09-10T10:16:43.330Z,28.56
2022-09-10T10:18:46.111Z,28.66
2022-09-10T10:20:48.799Z,28.65
2022-09-10T10:22:50.403Z,28.48
2022-09-10T10:24:54.075Z,28.55
2022-09-10T10:26:55.915Z,28.63
2022-09-10T10:28:59.841Z,28.78
2022-09-10T10:31:01.646Z,28.93
2022-09-10T10:33:03.842Z,29.06
2022-09-10T10:35:11.658Z,29.12
2022-09-10T10:37:43.803Z,29.16
2022-09-10T10:40:10.108Z,29.32
2022-09-10T10:42:35.601Z,29.20
2022-09-10T10:45:01.930Z,29.23
2022-09-10T10:47:25.402Z,29.10
2022-09-10T10:49:53.317Z,29.15
2022-09-10T10:52:04.387Z,29.21
2022-09-10T10:54:24.537Z,29.17
2022-09-10T10:56:44.824Z,29.14
2022-09-10T10:59:09.404Z,29.03
2022-09-10T11:01:23.137Z,28.77
2022-09-10T11:03:59.545Z,28.51
2022-09-10T11:06:05.212Z,28.27
2022-09-10T11:08:15.139Z,28.15
2022-09-10T11:10:54.661Z,28.05
2022-09-10T11:13:18.929Z,27.69
2022-09-10T11:15:38.843Z,26.57
2022-09-10T11:17:48.757Z,26.16
2022-09-10T11:20:27.391Z,25.26
2022-09-10T11:22:33.636Z,23.82
2022-09-10T11:24:43.217Z,21.93
2022-09-10T11:26:48.869Z,21.24
2022-09-10T11:29:07.808Z,20.56
2022-09-10T11:31:15.866Z,20.26
2022-09-10T11:33:23.453Z,20.36
2022-09-10T11:35:35.325Z,20.63
2022-09-10T11:38:01.420Z,21.02
2022-09-10T11:40:06.938Z,21.33
2022-09-10T11:42:36.195Z,21.60
2022-09-10T11:44:45.961Z,21.92
2022-09-10T11:46:57.271Z,21.81
2022-09-10T11:49:16.158Z,21.76
2022-09-10T11:51:30.712Z,21.78
2022-09-10T11:53:32.452Z,21.86
2022-09-10T11:56:23.302Z,21.90
2022-09-10T11:58:53.063Z,22.05
2022-09-10T12:01:05.018Z,22.08
2022-09-10T12:03:20.289Z,22.02
2022-09-10T12:05:46.561Z,22.12
2022-09-10T12:07:53.906Z,22.24
2022-09-10T12:10:20.379Z,22.27
2022-09-10T12:12:40.987Z,22.29
2022-09-10T12:14:42.832Z,22.25
2022-09-10T12:16:49.122Z,22.20
2022-09-10T12:18:53.258Z,22.23
2022-09-10T12:20:59.464Z,22.32
2022-09-10T12:23:01.269Z,22.44
2022-09-10T12:25:06.348Z,22.58
2022-09-10T12:27:16.093Z,22.79
2022-09-10T12:29:34.495Z,22.97
2022-09-10T12:32:16.185Z,23.20
2022-09-10T12:34:19.603Z,23.34
2022-09-10T12:36:27.300Z,23.59
2022-09-10T12:38:56.334Z,23.76
2022-09-10T12:40:57.913Z,23.87
2022-09-10T12:43:04.237Z,23.94
2022-09-10T12:45:08.762Z,24.06
2022-09-10T12:47:16.495Z,24.14
2022-09-10T12:49:18.203Z,24.20
2022-09-10T12:51:19.985Z,24.20
2022-09-10T12:53:42.965Z,24.24
2022-09-10T12:56:02.233Z,24.35
2022-09-10T12:58:40.017Z,24.43
2022-09-10T13:00:58.184Z,24.48
2022-09-10T13:03:15.270Z,24.52
2022-09-10T13:05:31.756Z,24.59
2022-09-10T13:07:40.282Z,24.70
2022-09-10T13:09:42.024Z,24.83
2022-09-10T13:11:47.411Z,24.98
2022-09-10T13:13:48.983Z,25.04
2022-09-10T13:15:52.290Z,25.11
2022-09-10T13:17:54.573Z,25.25
2022-09-10T13:20:14.864Z,25.28
2022-09-10T13:22:36.224Z,25.31
2022-09-10T13:24:39.374Z,25.34
2022-09-10T13:26:52.527Z,25.43
2022-09-10T13:28:54.719Z,25.57
2022-09-10T13:31:13.126Z,25.61
2022-09-10T13:33:21.488Z,25.59
2022-09-10T13:35:47.312Z,25.53
2022-09-10T13:37:48.990Z,25.50
2022-09-10T13:40:08.103Z,25.46
2022-09-10T13:42:24.941Z,25.38
2022-09-10T13:45:01.048Z,25.29
2022-09-10T13:47:09.330Z,25.26
2022-09-10T13:49:19.385Z,25.18
2022-09-10T13:51:46.363Z,25.13
2022-09-10T13:53:49.160Z,24.93
2022-09-10T13:55:59.073Z,24.90
2022-09-10T13:58:06.493Z,24.99
2022-09-10T14:00:17.909Z,25.01
2022-09-10T14:02:21.307Z,25.06
2022-09-10T14:04:24.063Z,25.13
2022-09-10T14:06:25.814Z,25.20
2022-09-10T14:08:27.445Z,25.27
2022-09-10T14:10:29.510Z,25.34
2022-09-10T14:12:34.573Z,25.42
2022-09-10T14:14:39.765Z,25.50
2022-09-10T14:16:48.167Z,25.52
2022-09-10T14:18:53.519Z,25.54
2022-09-10T14:20:55.198Z,25.59
2022-09-10T14:23:02.675Z,25.74
2022-09-10T14:25:05.350Z,25.86
2022-09-10T14:27:13.581Z,26.05
2022-09-10T14:29:25.589Z,26.24
2022-09-10T14:31:33.646Z,26.21
2022-09-10T14:33:36.357Z,26.18
2022-09-10T14:35:43.277Z,26.18
2022-09-10T14:37:44.892Z,26.15
2022-09-10T14:39:47.457Z,26.20
2022-09-10T14:41:49.803Z,26.39
2022-09-10T14:44:23.216Z,26.59
2022-09-10T14:46:54.503Z,26.80
2022-09-10T14:48:58.802Z,26.94
2022-09-10T14:51:22.783Z,27.01
2022-09-10T14:53:24.583Z,26.88
2022-09-10T14:55:27.338Z,26.72
2022-09-10T14:57:28.967Z,26.58
2022-09-10T14:59:41.657Z,26.45
2022-09-10T15:01:45.457Z,26.15
2022-09-10T15:03:47.129Z,25.94
2022-09-10T15:05:48.777Z,25.65
2022-09-10T15:07:50.453Z,25.30
2022-09-10T15:09:53.551Z,25.16
2022-09-10T15:12:05.960Z,25.07
2022-09-10T15:14:10.620Z,25.06
2022-09-10T15:16:12.356Z,25.07
2022-09-10T15:18:15.137Z,25.06
2022-09-10T15:20:17.000Z,24.94
2022-09-10T15:22:28.284Z,24.70
2022-09-10T15:24:29.905Z,24.46
2022-09-10T15:26:31.481Z,24.43
2022-09-10T15:28:33.611Z,24.45
2022-09-10T15:30:36.863Z,24.46
2022-09-10T15:32:38.503Z,24.23
2022-09-10T15:34:40.831Z,24.18
2022-09-10T15:36:42.511Z,24.18
2022-09-10T15:38:44.093Z,24.32
2022-09-10T15:40:48.830Z,24.41
2022-09-10T15:42:52.358Z,24.48
2022-09-10T15:44:53.816Z,24.47
2022-09-10T15:46:55.780Z,24.52
2022-09-10T15:48:59.452Z,24.55
2022-09-10T15:51:05.653Z,24.61
2022-09-10T15:53:11.736Z,24.67
2022-09-10T15:55:14.067Z,24.65
2022-09-10T15:57:15.729Z,24.65
2022-09-10T15:59:17.510Z,24.67
2022-09-10T16:01:19.416Z,24.69
2022-09-10T16:03:21.525Z,24.69
2022-09-10T16:05:23.157Z,24.74
2022-09-10T16:07:24.885Z,24.83
2022-09-10T16:09:26.524Z,25.01
2022-09-10T16:11:31.176Z,25.19
2022-09-10T16:13:32.981Z,25.34
2022-09-10T16:15:37.155Z,25.38
2022-09-10T16:17:38.864Z,25.35
2022-09-10T16:19:40.562Z,25.33
2022-09-10T16:21:43.459Z,25.27
2022-09-10T16:23:46.852Z,25.28
2022-09-10T16:25:53.161Z,25.27
2022-09-10T16:27:54.768Z,25.25
2022-09-10T16:29:56.395Z,25.17
2022-09-10T16:31:58.187Z,25.08
2022-09-10T16:34:05.105Z,25.00
2022-09-10T16:36:07.267Z,24.90
2022-09-10T16:38:09.150Z,24.80
2022-09-10T16:40:11.649Z,24.68
2022-09-10T16:42:13.651Z,24.60
2022-09-10T16:44:16.894Z,24.49
2022-09-10T16:46:18.718Z,24.36
2022-09-10T16:48:20.355Z,24.29
2022-09-10T16:50:23.131Z,24.22
2022-09-10T16:52:24.728Z,24.16
2022-09-10T16:54:26.701Z,24.09
2022-09-10T16:56:39.906Z,24.01
2022-09-10T16:58:45.237Z,23.87
2022-09-10T17:00:49.754Z,23.70
2022-09-10T17:02:53.034Z,23.67
2022-09-10T17:04:55.462Z,23.56
2022-09-10T17:06:57.867Z,23.47
2022-09-10T17:09:01.398Z,23.43
2022-09-10T17:11:02.888Z,23.45
2022-09-10T17:13:04.490Z,23.43
2022-09-10T17:15:07.210Z,23.39
2022-09-10T17:17:09.885Z,23.35
2022-09-10T17:19:17.576Z,23.40
2022-09-10T17:21:19.379Z,23.42
2022-09-10T17:23:20.991Z,23.46
2022-09-10T17:25:22.586Z,23.44
2022-09-10T17:27:25.680Z,23.37
2022-09-10T17:29:27.453Z,23.31
2022-09-10T17:31:29.945Z,23.26
2022-09-10T17:33:31.994Z,23.26
2022-09-10T17:35:33.633Z,23.23
2022-09-10T17:37:35.907Z,23.24
2022-09-10T17:39:37.599Z,23.25
2022-09-10T17:41:39.711Z,23.25
2022-09-10T17:43:42.934Z,23.26
2022-09-10T17:45:44.686Z,23.27
2022-09-10T17:47:46.360Z,23.27
2022-09-10T17:49:48.114Z,23.27
2022-09-10T17:51:49.790Z,23.24
2022-09-10T17:53:52.957Z,23.24
2022-09-10T17:55:54.845Z,23.22
2022-09-10T17:57:56.497Z,23.21
2022-09-10T17:59:58.140Z,23.22
2022-09-10T18:01:59.748Z,23.24
2022-09-10T18:04:01.733Z,23.24
2022-09-10T18:06:08.826Z,23.25
2022-09-10T18:08:11.339Z,23.25
2022-09-10T18:10:13.232Z,23.26
2022-09-10T18:12:15.057Z,23.19
2022-09-10T18:14:18.643Z,23.13
2022-09-10T18:16:26.229Z,23.12
2022-09-10T18:18:28.100Z,23.07
2022-09-10T18:20:30.070Z,23.02
2022-09-10T18:22:33.298Z,22.98
2022-09-10T18:24:34.859Z,22.91
2022-09-10T18:26:39.460Z,22.85
2022-09-10T18:28:42.720Z,22.81
2022-09-10T18:30:44.276Z,22.82
2022-09-10T18:32:47.707Z,22.81
2022-09-10T18:34:49.482Z,22.75
2022-09-10T18:36:54.463Z,22.65
2022-09-10T18:38:56.280Z,22.63
2022-09-10T18:40:57.940Z,22.62
2022-09-10T18:42:59.601Z,22.60
2022-09-10T18:45:01.188Z,22.59
2022-09-10T18:47:14.266Z,22.52
2022-09-10T18:49:25.159Z,22.43
2022-09-10T18:51:29.706Z,22.37
2022-09-10T18:53:32.308Z,22.40
2022-09-10T18:55:34.174Z,22.32
2022-09-10T18:57:36.577Z,22.11
2022-09-10T18:59:38.392Z,22.07
2022-09-10T19:01:43.990Z,22.10
2022-09-10T19:03:47.836Z,22.07
2022-09-10T19:05:49.701Z,22.13
2022-09-10T19:07:51.798Z,22.16
2022-09-10T19:09:53.973Z,22.15
2022-09-10T19:11:57.127Z,22.13
2022-09-10T19:14:00.043Z,22.08
2022-09-10T19:16:02.689Z,22.10
2022-09-10T19:18:06.413Z,22.16
2022-09-10T19:20:09.089Z,22.09
2022-09-10T19:22:13.471Z,22.09
2022-09-10T19:24:16.274Z,22.07
2022-09-10T19:26:19.216Z,22.03
2022-09-10T19:28:21.093Z,21.94
2022-09-10T19:30:22.718Z,21.95
2022-09-10T19:32:24.314Z,21.93
2022-09-10T19:34:26.928Z,21.96
2022-09-10T19:36:31.713Z,21.97
2022-09-10T19:38:37.842Z,21.97
2022-09-10T19:40:39.717Z,22.03
2022-09-10T19:42:41.449Z,22.05
2022-09-10T19:44:43.682Z,22.11
2022-09-10T19:46:45.883Z,22.16
2022-09-10T19:48:48.069Z,22.19
2022-09-10T19:50:50.028Z,22.19
2022-09-10T19:52:51.880Z,22.18
2022-09-10T19:54:53.676Z,22.20
2022-09-10T19:56:56.383Z,22.20
2022-09-10T19:58:58.478Z,22.16
2022-09-10T20:01:00.126Z,22.15
2022-09-10T20:03:01.996Z,22.13
2022-09-10T20:05:04.629Z,22.07
2022-09-10T20:07:06.825Z,21.97
2022-09-10T20:09:10.132Z,21.87
2022-09-10T20:11:19.850Z,21.83
2022-09-10T20:13:21.494Z,21.73
2022-09-10T20:15:23.596Z,21.70
2022-09-10T20:17:25.198Z,21.76
2022-09-10T20:19:27.070Z,21.76
2022-09-10T20:21:31.662Z,21.79
2022-09-10T20:23:36.257Z,21.72
2022-09-10T20:25:38.563Z,21.56
2022-09-10T20:27:40.105Z,21.58
2022-09-10T20:29:43.330Z,21.60
2022-09-10T20:31:47.049Z,21.60
2022-09-10T20:33:49.391Z,21.53
2022-09-10T20:35:51.166Z,21.43
2022-09-10T20:37:52.721Z,21.47
2022-09-10T20:39:56.780Z,21.44
2022-09-10T20:41:59.056Z,21.39
2022-09-10T20:44:01.649Z,21.36
2022-09-10T20:46:03.464Z,21.26
2022-09-10T20:48:05.135Z,21.18
2022-09-10T20:50:06.943Z,21.12
2022-09-10T20:52:08.524Z,21.12
2022-09-10T20:54:15.997Z,21.12
2022-09-10T20:56:19.333Z,21.06
2022-09-10T20:58:20.908Z,21.00
2022-09-10T21:00:22.967Z,20.99
2022-09-10T21:02:25.304Z,21.04
2022-09-10T21:04:27.072Z,20.97
2022-09-10T21:06:31.343Z,20.91
2022-09-10T21:08:33.132Z,20.87
2022-09-10T21:10:36.699Z,20.86
2022-09-10T21:12:38.310Z,20.91
2022-09-10T21:14:39.857Z,20.85
2022-09-10T21:16:43.237Z,20.86
2022-09-10T21:18:54.172Z,20.82
2022-09-10T21:21:16.187Z,20.88
2022-09-10T21:23:20.202Z,20.93
2022-09-10T21:25:22.152Z,20.95
2022-09-10T21:27:24.207Z,20.99
2022-09-10T21:29:25.813Z,21.05
2022-09-10T21:31:28.316Z,21.04
2022-09-10T21:33:30.014Z,21.09
2022-09-10T21:35:31.828Z,21.14
2022-09-10T21:37:33.425Z,21.13
2022-09-10T21:39:35.163Z,21.13
2022-09-10T21:41:42.649Z,21.13
2022-09-10T21:43:45.948Z,21.14
2022-09-10T21:45:48.459Z,21.14
2022-09-10T21:47:50.038Z,21.13
2022-09-10T21:49:51.936Z,21.13
2022-09-10T21:51:53.648Z,21.17
2022-09-10T21:53:56.456Z,21.18
2022-09-10T21:55:59.043Z,21.21
2022-09-10T21:58:00.751Z,21.22
2022-09-10T22:00:02.630Z,21.16
2022-09-10T22:02:04.388Z,21.13
2022-09-10T22:04:06.269Z,21.15
2022-09-10T22:06:10.067Z,21.15
2022-09-10T22:08:11.693Z,21.14
2022-09-10T22:10:13.387Z,21.08
2022-09-10T22:12:14.967Z,21.07
2022-09-10T22:14:18.591Z,21.07
2022-09-10T22:16:21.011Z,21.11
2022-09-10T22:18:22.629Z,21.10
2022-09-10T22:20:24.217Z,21.12
2022-09-10T22:22:26.099Z,21.16
2022-09-10T22:24:27.755Z,21.17
2022-09-10T22:26:29.389Z,21.20
2022-09-10T22:28:34.872Z,21.19
2022-09-10T22:30:37.056Z,21.09
2022-09-10T22:32:39.657Z,21.02
2022-09-10T22:34:41.415Z,20.89
2022-09-10T22:36:44.326Z,20.86
2022-09-10T22:38:53.637Z,20.75
2022-09-10T22:40:57.032Z,20.72
2022-09-10T22:42:58.881Z,20.78
2022-09-10T22:45:01.416Z,20.69
2022-09-10T22:47:03.137Z,20.69
2022-09-10T22:49:05.811Z,20.62
2022-09-10T22:51:12.623Z,20.63
2022-09-10T22:53:14.640Z,20.63
2022-09-10T22:55:16.237Z,20.56
2022-09-10T22:57:18.497Z,20.61
2022-09-10T22:59:20.113Z,20.62
2022-09-10T23:01:24.920Z,20.58
2022-09-10T23:03:27.165Z,20.58
2022-09-10T23:05:28.906Z,20.59
2022-09-10T23:07:30.446Z,20.56
2022-09-10T23:09:32.157Z,20.54
2022-09-10T23:11:34.536Z,20.50
2022-09-10T23:13:36.253Z,20.41
2022-09-10T23:15:37.949Z,20.32
2022-09-10T23:17:39.632Z,20.29
2022-09-10T23:19:41.223Z,20.30
2022-09-10T23:21:45.727Z,20.27
2022-09-10T23:23:48.631Z,20.23
2022-09-10T23:25:50.465Z,20.22
2022-09-10T23:27:52.205Z,20.23
2022-09-10T23:29:53.811Z,20.27
2022-09-10T23:31:55.368Z,20.30
2022-09-10T23:33:59.384Z,20.27
2022-09-10T23:36:03.237Z,20.28
2022-09-10T23:38:04.817Z,20.31
2022-09-10T23:40:07.549Z,20.36
2022-09-10T23:42:09.278Z,20.40
2022-09-10T23:44:10.889Z,20.39
2022-09-10T23:46:12.668Z,20.38
2022-09-10T23:48:14.299Z,20.31
2022-09-10T23:50:16.493Z,20.29
2022-09-10T23:52:18.379Z,20.29
2022-09-10T23:54:20.152Z,20.30
2022-09-10T23:56:23.558Z,20.34
2022-09-10T23:58:25.344Z,20.38
